createdAt,value
2019-03-30T00:00:33.436Z,6.02
2019-03-30T00:03:06.146Z,6.00
2019-03-30T00:05:40.445Z,6.01
2019-03-30T00:08:19.243Z,5.92
2019-03-30T00:11:00.532Z,5.92
2019-03-30T00:13:33.445Z,5.93
2019-03-30T00:16:08.332Z,5.92
2019-03-30T00:18:41.332Z,5.92
2019-03-30T00:21:13.857Z,5.81
2019-03-30T00:23:46.527Z,5.81
2019-03-30T00:26:18.881Z,5.87
2019-03-30T00:28:51.348Z,5.77
2019-03-30T00:31:24.033Z,5.70
2019-03-30T00:33:56.477Z,5.68
2019-03-30T00:36:28.865Z,5.56
2019-03-30T00:39:01.575Z,5.51
2019-03-30T00:41:35.573Z,5.48
2019-03-30T00:44:08.294Z,5.42
2019-03-30T00:46:40.685Z,5.36
2019-03-30T00:49:13.348Z,5.36
2019-03-30T00:51:45.711Z,5.38
2019-03-30T00:54:18.303Z,5.45
2019-03-30T00:56:50.668Z,5.26
2019-03-30T00:59:23.315Z,5.26
2019-03-30T01:01:55.702Z,5.35
2019-03-30T01:04:28.291Z,5.35
2019-03-30T01:07:00.785Z,5.07
2019-03-30T01:09:35.506Z,5.07
2019-03-30T01:12:07.287Z,5.22
2019-03-30T01:14:39.640Z,5.24
2019-03-30T01:17:12.054Z,5.24
2019-03-30T01:19:44.647Z,5.14
2019-03-30T01:22:17.384Z,5.11
2019-03-30T01:24:49.805Z,5.02
2019-03-30T01:27:23.537Z,4.97
2019-03-30T01:29:56.059Z,4.93
2019-03-30T01:32:28.534Z,4.87
2019-03-30T01:35:00.842Z,4.98
2019-03-30T01:37:33.488Z,4.92
2019-03-30T01:40:08.424Z,4.98
2019-03-30T01:42:40.757Z,4.89
2019-03-30T01:45:13.312Z,4.82
2019-03-30T01:47:47.478Z,4.88
2019-03-30T01:50:19.230Z,4.81
2019-03-30T01:52:51.706Z,4.96
2019-03-30T01:55:24.307Z,4.85
2019-03-30T01:57:56.706Z,4.67
2019-03-30T02:00:29.303Z,4.67
2019-03-30T02:03:01.665Z,4.79
2019-03-30T02:05:34.057Z,4.79
2019-03-30T02:08:06.366Z,4.66
2019-03-30T02:10:46.298Z,4.65
2019-03-30T02:13:18.676Z,4.44
2019-03-30T02:15:51.288Z,4.44
2019-03-30T02:18:23.624Z,4.49
2019-03-30T02:20:56.314Z,4.49
2019-03-30T02:23:31.703Z,4.43
2019-03-30T02:26:04.592Z,4.43
2019-03-30T02:28:37.018Z,4.33
2019-03-30T02:31:09.768Z,4.22
2019-03-30T02:33:42.292Z,4.22
2019-03-30T02:36:14.765Z,4.08
2019-03-30T02:38:47.295Z,4.08
2019-03-30T02:41:19.690Z,4.02
2019-03-30T02:43:53.393Z,3.82
2019-03-30T02:46:25.132Z,4.03
2019-03-30T02:48:57.478Z,3.93
2019-03-30T02:51:29.238Z,3.89
2019-03-30T02:54:01.426Z,3.83
2019-03-30T02:56:33.965Z,3.78
2019-03-30T02:59:06.300Z,3.79
2019-03-30T03:01:38.755Z,3.59
2019-03-30T03:04:11.295Z,3.59
2019-03-30T03:06:43.594Z,3.83
2019-03-30T03:09:16.060Z,3.83
2019-03-30T03:11:48.501Z,3.91
2019-03-30T03:14:20.272Z,3.81
2019-03-30T03:16:52.677Z,3.77
2019-03-30T03:19:25.696Z,3.74
2019-03-30T03:21:58.170Z,3.65
2019-03-30T03:27:11.291Z,3.63
2019-03-30T03:29:44.313Z,3.41
2019-03-30T03:32:16.692Z,3.53
2019-03-30T03:34:49.322Z,3.53
2019-03-30T03:37:21.765Z,3.54
2019-03-30T03:39:54.366Z,3.54
2019-03-30T03:42:27.155Z,3.59
2019-03-30T03:44:59.458Z,3.59
2019-03-30T03:47:31.155Z,3.47
2019-03-30T03:50:03.547Z,3.51
2019-03-30T03:52:36.370Z,3.51
2019-03-30T03:55:10.377Z,3.36
2019-03-30T03:57:45.670Z,3.36
2019-03-30T04:00:18.346Z,3.49
2019-03-30T04:02:51.782Z,3.30
2019-03-30T04:05:27.969Z,3.30
2019-03-30T04:08:05.611Z,3.35
2019-03-30T04:10:41.471Z,3.32
2019-03-30T04:13:17.255Z,3.35
2019-03-30T04:15:49.490Z,3.34
2019-03-30T04:18:22.260Z,3.25
2019-03-30T04:20:59.683Z,3.23
2019-03-30T04:23:33.210Z,3.14
2019-03-30T04:26:14.937Z,3.21
2019-03-30T04:29:17.290Z,3.14
2019-03-30T04:31:58.036Z,2.80
2019-03-30T04:34:31.409Z,2.80
2019-03-30T04:37:03.705Z,2.95
2019-03-30T04:56:12.253Z,2.94
2019-03-30T04:58:44.626Z,2.81
2019-03-30T05:01:17.064Z,2.75
2019-03-30T05:03:49.887Z,2.72
2019-03-30T05:06:23.501Z,2.71
2019-03-30T05:08:55.237Z,2.64
2019-03-30T05:11:27.642Z,2.68
2019-03-30T05:14:00.288Z,2.72
2019-03-30T05:16:32.779Z,2.71
2019-03-30T05:19:05.680Z,2.71
2019-03-30T05:21:38.046Z,2.73
2019-03-30T05:24:10.574Z,2.77
2019-03-30T05:26:43.277Z,2.86
2019-03-30T05:29:15.248Z,2.77
2019-03-30T05:31:49.294Z,2.87
2019-03-30T05:34:21.619Z,2.83
2019-03-30T05:36:55.523Z,2.83
2019-03-30T05:39:28.336Z,3.00
2019-03-30T05:42:02.289Z,3.05
2019-03-30T05:44:34.680Z,2.95
2019-03-30T05:47:37.295Z,2.95
2019-03-30T05:56:34.785Z,3.06
2019-03-30T05:59:07.283Z,3.18
2019-03-30T06:01:40.627Z,3.25
2019-03-30T06:04:15.539Z,3.25
2019-03-30T06:06:47.941Z,3.31
2019-03-30T06:09:20.335Z,3.43
2019-03-30T06:11:52.701Z,3.39
2019-03-30T06:14:25.304Z,3.39
2019-03-30T06:16:59.534Z,3.68
2019-03-30T06:19:31.877Z,3.68
2019-03-30T06:22:04.291Z,3.73
2019-03-30T06:24:39.732Z,3.97
2019-03-30T06:27:12.304Z,3.97
2019-03-30T06:29:44.725Z,3.91
2019-03-30T06:32:17.300Z,3.91
2019-03-30T06:34:49.783Z,4.30
2019-03-30T06:37:22.295Z,4.30
2019-03-30T06:39:54.682Z,4.54
2019-03-30T06:42:27.058Z,4.54
2019-03-30T06:44:59.491Z,4.74
2019-03-30T06:47:31.815Z,4.76
2019-03-30T06:50:05.630Z,4.92
2019-03-30T06:52:42.711Z,5.07
2019-03-30T06:55:14.290Z,5.25
2019-03-30T06:57:46.569Z,5.57
2019-03-30T07:00:22.285Z,5.57
2019-03-30T07:02:54.360Z,5.64
2019-03-30T07:05:31.419Z,5.84
2019-03-30T07:08:03.779Z,5.93
2019-03-30T07:10:39.332Z,5.98
2019-03-30T07:13:24.296Z,6.12
2019-03-30T07:16:01.563Z,6.12
2019-03-30T07:18:33.508Z,6.34
2019-03-30T07:21:06.305Z,6.57
2019-03-30T07:23:38.643Z,6.76
2019-03-30T07:26:11.189Z,6.76
2019-03-30T07:28:46.959Z,6.86
2019-03-30T07:31:18.285Z,7.05
2019-03-30T07:33:52.355Z,7.25
2019-03-30T07:36:24.037Z,7.31
2019-03-30T07:38:56.393Z,7.46
2019-03-30T07:41:29.071Z,7.56
2019-03-30T07:44:01.550Z,7.80
2019-03-30T07:46:38.316Z,8.00
2019-03-30T07:49:10.597Z,7.98
2019-03-30T07:51:43.092Z,7.98
2019-03-30T07:54:18.405Z,8.36
2019-03-30T07:57:04.581Z,8.61
2019-03-30T07:59:32.245Z,8.71
2019-03-30T08:02:07.736Z,8.87
2019-03-30T08:04:42.056Z,8.76
2019-03-30T08:07:16.477Z,8.93
2019-03-30T08:09:48.247Z,9.24
2019-03-30T08:12:21.600Z,9.34
2019-03-30T08:14:54.300Z,9.71
2019-03-30T08:17:27.302Z,9.80
2019-03-30T08:20:22.647Z,9.79
2019-03-30T08:25:58.270Z,10.07
2019-03-30T08:28:55.077Z,10.26
2019-03-30T08:31:23.687Z,10.58
2019-03-30T08:33:56.748Z,10.70
2019-03-30T08:36:31.254Z,11.03
2019-03-30T08:39:07.495Z,11.03
2019-03-30T08:41:40.348Z,11.19
2019-03-30T08:44:12.890Z,11.29
2019-03-30T08:46:45.419Z,11.53
2019-03-30T08:49:18.225Z,11.36
2019-03-30T08:51:50.719Z,11.63
2019-03-30T08:54:23.402Z,11.73
2019-03-30T08:56:55.248Z,11.74
2019-03-30T08:59:29.288Z,12.00
2019-03-30T09:02:01.849Z,12.26
2019-03-30T09:04:34.604Z,12.26
2019-03-30T09:07:07.718Z,12.48
2019-03-30T09:09:40.432Z,12.72
2019-03-30T09:12:13.316Z,12.80
2019-03-30T09:14:45.272Z,12.96
2019-03-30T09:17:20.786Z,13.25
2019-03-30T09:19:53.494Z,13.25
2019-03-30T09:22:26.122Z,13.14
2019-03-30T09:25:00.523Z,13.20
2019-03-30T09:27:33.409Z,13.37
2019-03-30T09:30:09.286Z,13.57
2019-03-30T09:32:44.837Z,13.83
2019-03-30T09:35:16.320Z,14.04
2019-03-30T09:37:48.904Z,14.02
2019-03-30T09:40:21.477Z,14.02
2019-03-30T09:42:54.295Z,14.30
2019-03-30T09:45:26.976Z,14.74
2019-03-30T09:47:59.824Z,14.74
2019-03-30T09:50:32.387Z,14.76
2019-03-30T09:53:04.358Z,14.97
2019-03-30T09:55:37.095Z,15.14
2019-03-30T09:58:09.900Z,15.18
2019-03-30T10:00:42.384Z,15.15
2019-03-30T10:03:14.248Z,15.38
2019-03-30T10:05:46.817Z,15.88
2019-03-30T10:08:19.402Z,15.88
2019-03-30T10:10:51.910Z,16.11
2019-03-30T10:13:24.423Z,16.06
2019-03-30T10:15:57.315Z,16.19
2019-03-30T10:18:29.803Z,16.05
2019-03-30T10:21:02.486Z,16.05
2019-03-30T10:23:35.335Z,16.30
2019-03-30T10:26:08.349Z,16.18
2019-03-30T10:28:41.091Z,16.90
2019-03-30T10:31:13.786Z,16.90
2019-03-30T10:33:46.469Z,17.04
2019-03-30T10:36:22.048Z,17.09
2019-03-30T10:38:54.845Z,17.19
2019-03-30T10:41:30.496Z,17.32
2019-03-30T10:44:03.491Z,17.56
2019-03-30T10:46:36.147Z,17.63
2019-03-30T10:49:08.629Z,17.76
2019-03-30T10:51:46.728Z,17.86
2019-03-30T10:54:15.631Z,18.13
2019-03-30T10:56:48.517Z,18.13
2019-03-30T10:59:21.306Z,18.11
2019-03-30T11:01:53.760Z,18.26
2019-03-30T11:04:26.437Z,18.26
2019-03-30T11:06:58.264Z,18.45
2019-03-30T11:09:32.212Z,18.66
2019-03-30T11:12:08.877Z,18.43
2019-03-30T11:14:41.553Z,18.53
2019-03-30T11:17:21.288Z,18.79
2019-03-30T11:19:56.915Z,18.92
2019-03-30T11:22:29.576Z,18.92
2019-03-30T11:25:08.513Z,19.17
2019-03-30T11:27:41.605Z,19.02
2019-03-30T11:30:18.171Z,19.22
2019-03-30T11:32:50.727Z,19.34
2019-03-30T11:35:24.822Z,19.34
2019-03-30T11:37:57.534Z,19.59
2019-03-30T11:40:30.304Z,19.49
2019-03-30T11:43:03.098Z,19.69
2019-03-30T11:45:35.516Z,19.69
2019-03-30T11:48:08.019Z,19.78
2019-03-30T11:50:40.479Z,19.70
2019-03-30T11:53:14.657Z,19.62
2019-03-30T11:55:50.294Z,19.71
2019-03-30T11:58:22.688Z,20.36
2019-03-30T12:00:55.530Z,20.09
2019-03-30T12:03:28.784Z,20.54
2019-03-30T12:06:01.336Z,20.55
2019-03-30T12:08:33.052Z,21.17
2019-03-30T12:11:05.593Z,22.22
2019-03-30T12:13:39.303Z,22.66
2019-03-30T12:16:11.128Z,23.17
2019-03-30T12:18:43.538Z,22.49
2019-03-30T12:21:16.345Z,23.68
2019-03-30T12:23:49.295Z,24.22
2019-03-30T12:26:21.239Z,24.22
2019-03-30T12:28:53.778Z,24.99
2019-03-30T12:31:26.354Z,26.44
2019-03-30T12:34:00.404Z,26.77
2019-03-30T12:36:32.236Z,27.61
2019-03-30T12:39:06.079Z,27.43
2019-03-30T12:41:38.616Z,27.55
2019-03-30T12:44:11.054Z,27.73
2019-03-30T12:46:43.616Z,28.27
2019-03-30T12:49:16.298Z,27.83
2019-03-30T12:51:50.614Z,30.91
2019-03-30T12:54:23.292Z,30.91
2019-03-30T12:56:55.692Z,32.36
2019-03-30T12:59:28.426Z,32.36
2019-03-30T13:02:00.242Z,31.57
2019-03-30T13:04:32.631Z,32.96
2019-03-30T13:07:05.303Z,32.28
2019-03-30T13:09:38.369Z,31.55
2019-03-30T13:12:11.429Z,31.55
2019-03-30T13:14:44.442Z,31.10
2019-03-30T13:17:17.388Z,31.64
2019-03-30T13:19:49.244Z,31.67
2019-03-30T13:22:21.692Z,32.87
2019-03-30T13:24:54.332Z,30.43
2019-03-30T13:27:26.740Z,28.93
2019-03-30T13:29:59.290Z,28.93
2019-03-30T13:32:31.614Z,30.40
2019-03-30T13:35:05.723Z,30.40
2019-03-30T13:37:39.035Z,32.36
2019-03-30T13:40:15.162Z,33.21
2019-03-30T13:42:59.035Z,34.71
2019-03-30T13:45:34.330Z,32.04
2019-03-30T13:48:07.313Z,33.50
2019-03-30T13:50:40.689Z,35.69
2019-03-30T13:53:16.295Z,35.66
2019-03-30T13:55:48.227Z,39.38
2019-03-30T13:58:20.123Z,35.46
2019-03-30T14:00:52.408Z,35.46
2019-03-30T14:03:24.866Z,37.61
2019-03-30T14:05:57.293Z,37.91
2019-03-30T14:08:29.872Z,35.14
2019-03-30T14:11:02.451Z,35.14
2019-03-30T14:13:36.620Z,36.20
2019-03-30T14:16:12.292Z,36.96
2019-03-30T14:18:44.764Z,37.19
2019-03-30T14:21:17.296Z,37.19
2019-03-30T14:23:49.781Z,36.97
2019-03-30T14:26:31.136Z,36.97
2019-03-30T14:28:56.683Z,36.78
2019-03-30T14:31:31.888Z,37.59
2019-03-30T14:34:04.410Z,38.22
2019-03-30T14:36:36.743Z,38.65
2019-03-30T14:39:09.985Z,36.75
2019-03-30T14:41:42.422Z,37.01
2019-03-30T14:44:15.135Z,35.05
2019-03-30T14:46:47.615Z,35.81
2019-03-30T14:49:20.184Z,38.27
2019-03-30T14:51:52.784Z,39.88
2019-03-30T14:54:25.294Z,39.88
2019-03-30T14:56:57.764Z,40.62
2019-03-30T14:59:30.300Z,40.62
2019-03-30T15:02:02.807Z,35.97
2019-03-30T15:04:35.298Z,35.97
2019-03-30T15:07:07.742Z,39.05
2019-03-30T15:09:40.352Z,39.05
2019-03-30T15:12:12.097Z,39.29
2019-03-30T15:17:24.827Z,39.76
2019-03-30T15:19:57.334Z,38.91
2019-03-30T15:22:29.065Z,38.28
2019-03-30T15:25:01.755Z,38.28
2019-03-30T15:27:34.299Z,39.49
2019-03-30T15:30:10.257Z,39.03
2019-03-30T15:32:45.535Z,39.79
2019-03-30T15:35:19.585Z,38.82
2019-03-30T15:37:52.376Z,39.27
2019-03-30T15:40:24.862Z,40.04
2019-03-30T15:42:57.330Z,39.40
2019-03-30T15:45:29.719Z,38.32
2019-03-30T15:48:02.296Z,38.32
2019-03-30T15:50:34.781Z,37.87
2019-03-30T15:53:08.359Z,37.87
2019-03-30T15:55:40.092Z,37.88
2019-03-30T15:58:12.474Z,37.59
2019-03-30T16:00:44.881Z,37.49
2019-03-30T16:03:25.648Z,37.58
2019-03-30T16:05:58.307Z,37.26
2019-03-30T16:08:31.004Z,36.44
2019-03-30T16:11:03.688Z,36.96
2019-03-30T16:13:36.295Z,35.70
2019-03-30T16:16:08.776Z,34.67
2019-03-30T16:18:41.479Z,35.08
2019-03-30T16:21:14.041Z,34.78
2019-03-30T16:23:46.453Z,34.11
2019-03-30T16:26:18.245Z,33.68
2019-03-30T16:28:52.218Z,34.29
2019-03-30T16:31:25.302Z,33.09
2019-03-30T16:33:57.983Z,32.09
2019-03-30T16:36:31.355Z,32.09
2019-03-30T16:39:03.326Z,29.66
2019-03-30T16:41:35.849Z,29.66
2019-03-30T16:44:08.303Z,29.19
2019-03-30T16:46:40.030Z,28.61
2019-03-30T16:49:12.500Z,27.45
2019-03-30T16:51:45.375Z,26.99
2019-03-30T16:54:17.264Z,26.15
2019-03-30T16:56:49.903Z,26.00
2019-03-30T16:59:24.580Z,25.68
2019-03-30T17:01:58.305Z,25.03
2019-03-30T17:04:31.292Z,23.80
2019-03-30T17:07:06.430Z,23.80
2019-03-30T17:09:39.869Z,23.58
2019-03-30T17:12:13.477Z,23.09
2019-03-30T17:14:46.980Z,22.77
2019-03-30T17:17:19.538Z,22.49
2019-03-30T17:20:03.482Z,22.15
2019-03-30T17:22:40.753Z,21.67
2019-03-30T17:25:13.450Z,21.12
2019-03-30T17:27:58.137Z,21.12
2019-03-30T17:30:23.577Z,20.96
2019-03-30T17:32:56.289Z,20.68
2019-03-30T17:35:28.684Z,20.21
2019-03-30T17:38:01.298Z,20.21
2019-03-30T17:40:33.767Z,19.62
2019-03-30T17:43:06.719Z,19.62
2019-03-30T17:45:39.468Z,19.38
2019-03-30T17:48:14.479Z,19.10
2019-03-30T17:50:46.247Z,18.87
2019-03-30T17:53:18.661Z,18.60
2019-03-30T17:55:51.300Z,18.40
2019-03-30T17:58:25.251Z,18.22
2019-03-30T18:01:02.759Z,18.07
2019-03-30T18:03:34.511Z,17.62
2019-03-30T18:06:09.041Z,17.62
2019-03-30T18:08:41.866Z,17.45
2019-03-30T18:11:14.849Z,17.28
2019-03-30T18:13:47.945Z,17.19
2019-03-30T18:16:24.914Z,16.94
2019-03-30T18:18:58.401Z,16.66
2019-03-30T18:21:30.521Z,16.47
2019-03-30T18:24:03.600Z,16.25
2019-03-30T18:26:36.460Z,16.18
2019-03-30T18:29:09.034Z,16.07
2019-03-30T18:33:15.069Z,16.05
2019-03-30T18:35:48.721Z,15.85
2019-03-30T18:38:22.289Z,15.67
2019-03-30T18:40:56.067Z,15.25
2019-03-30T18:43:30.414Z,15.25
2019-03-30T18:46:02.238Z,15.19
2019-03-30T18:48:35.646Z,15.10
2019-03-30T18:51:08.294Z,14.93
2019-03-30T18:53:40.688Z,14.81
2019-03-30T18:56:13.055Z,14.71
2019-03-30T18:58:45.646Z,14.62
2019-03-30T19:01:18.498Z,14.57
2019-03-30T19:03:51.222Z,14.44
2019-03-30T19:06:23.615Z,14.32
2019-03-30T19:08:57.403Z,14.16
2019-03-30T19:11:29.043Z,14.05
2019-03-30T19:14:01.558Z,13.87
2019-03-30T19:16:34.315Z,13.79
2019-03-30T19:19:06.901Z,13.64
2019-03-30T19:21:39.341Z,13.64
2019-03-30T19:24:11.795Z,13.58
2019-03-30T19:26:44.302Z,13.58
2019-03-30T19:29:16.753Z,13.30
2019-03-30T19:31:49.301Z,13.30
2019-03-30T19:34:22.055Z,13.35
2019-03-30T19:36:54.530Z,13.35
2019-03-30T19:39:27.402Z,13.23
2019-03-30T19:42:02.063Z,13.14
2019-03-30T19:44:34.466Z,12.96
2019-03-30T19:47:07.057Z,12.82
2019-03-30T19:49:39.396Z,12.66
